Campanya meteocatpedra

Dades de l'estació automàtica Aitona

?
?
Resum diari 21:30 TU
Dades diàries de l'estació meteorològica
Temperatura mitjana 24.9 °C
Temperatura màxima 34.4 °C 15:49 TU
Temperatura mínima 16.8 °C 4:15 TU
Humitat relativa mitjana 66%
Precipitació acumulada 0.0 mm
Ratxa màxima del vent (2 m) 26.3 km/h - 139º 21:25 TU
Irradiació solar global 26.4 MJ/m2

El tram horari està expressat en Temps Universal (TU). Cal sumar una hora en horari d'hivern i dues en horari d'estiu per passar a l'hora oficial.

Aitona

Metadades estació meteorol´gica
Municipi Aitona
Comarca Segrià
Altitud 97 m
Data alta 12.03.1998
Estat actual Operativa
Dades de període
Període
TU
TM
°C
TX
°C
TN
°C
HRM
%
PPT
mm
VVM (2 m)
km/h
DVM (2 m)
graus
VVX (2 m)
km/h
RS
W/m2
00:00 - 00:30 20.1 20.3 19.9 80 0.0 4.7 30 9.4 0
00:30 - 01:00 19.5 20.1 19.1 83 0.0 4.3 45 8.3 0
01:00 - 01:30 19.2 19.4 19.0 84 0.0 4.7 36 9.4 0
01:30 - 02:00 19.2 19.3 18.8 84 0.0 4.3 41 9.0 0
02:00 - 02:30 18.5 18.8 18.1 87 0.0 2.5 52 7.2 0
02:30 - 03:00 18.1 18.4 17.7 88 0.0 2.5 61 6.5 0
03:00 - 03:30 17.4 17.6 17.2 92 0.0 1.4 69 3.6 0
03:30 - 04:00 17.1 17.3 16.9 92 0.0 2.5 59 5.4 0
04:00 - 04:30 17.2 17.6 16.8 91 0.0 2.9 58 6.8 0
04:30 - 05:00 17.7 18.3 17.2 91 0.0 2.5 60 5.4 16
05:00 - 05:30 18.9 19.1 18.4 86 0.0 3.2 56 8.3 23
05:30 - 06:00 19.4 19.7 19.0 84 0.0 1.8 65 5.0 35
06:00 - 06:30 20.1 20.5 19.7 81 0.0 2.2 46 6.8 90
06:30 - 07:00 20.6 20.8 20.4 78 0.0 3.2 32 6.8 89
07:00 - 07:30 21.1 21.5 20.8 77 0.0 1.4 44 4.7 126
07:30 - 08:00 21.6 21.9 21.3 78 0.0 1.8 132 4.7 133
08:00 - 08:30 23.4 24.5 21.7 70 0.0 2.5 35 7.6 458
08:30 - 09:00 24.6 26.0 23.3 66 0.0 2.5 15 8.6 610
09:00 - 09:30 25.6 26.2 25.2 65 0.0 4.0 211 10.4 773
09:30 - 10:00 26.4 26.8 25.9 63 0.0 4.0 212 11.2 833
10:00 - 10:30 26.6 27.0 26.3 62 0.0 4.0 230 11.5 880
10:30 - 11:00 27.3 27.8 26.7 60 0.0 4.7 218 13.3 936
11:00 - 11:30 27.8 28.5 27.3 58 0.0 4.3 222 14.4 883
11:30 - 12:00 28.1 28.9 27.5 57 0.0 4.0 208 10.1 686
12:00 - 12:30 29.0 30.6 28.2 54 0.0 3.6 258 14.0 785
12:30 - 13:00 30.4 31.2 30.1 50 0.0 3.2 242 11.2 913
13:00 - 13:30 31.0 32.8 30.1 46 0.0 3.2 257 11.9 920
13:30 - 14:00 31.9 32.9 30.8 40 0.0 3.2 248 10.8 854
14:00 - 14:30 32.4 32.8 31.8 38 0.0 3.2 279 13.3 828
14:30 - 15:00 33.1 33.8 32.4 34 0.0 4.0 306 17.3 777
15:00 - 15:30 33.3 34.1 32.6 35 0.0 2.9 283 10.4 705
15:30 - 16:00 33.4 34.4 32.6 33 0.0 3.2 261 13.3 626
16:00 - 16:30 31.8 33.1 30.8 44 0.0 6.5 176 19.1 528
16:30 - 17:00 30.3 30.8 29.9 50 0.0 7.9 164 17.6 441
17:00 - 17:30 29.5 29.9 29.1 52 0.0 8.6 164 19.1 369
17:30 - 18:00 28.4 29.1 28.1 55 0.0 9.7 162 22.0 175
18:00 - 18:30 27.9 28.2 27.5 57 0.0 9.0 164 22.7 157
18:30 - 19:00 27.1 27.5 26.7 59 0.0 9.0 163 23.4 50
19:00 - 19:30 26.3 26.6 25.9 62 0.0 8.6 165 21.6 13
19:30 - 20:00 25.6 25.9 25.2 64 0.0 8.6 165 22.0 0
20:00 - 20:30 25.0 25.1 24.8 66 0.0 10.1 163 24.8 0
20:30 - 21:00 24.5 24.7 24.3 67 0.0 10.8 161 24.1 0
21:00 - 21:30 24.0 24.3 23.9 69 0.0 9.4 165 26.3 0
21:30 - 22:00 23.7 23.9 23.6 70 0.0 10.4 161 23.4 0

Les dades en taronja només han passat un control de qualitat automàtic. Resta pendent la seva validació definitiva.